createdAt,value
2022-12-08T00:00:22.001Z,9.10
2022-12-08T00:02:49.659Z,6.07
2022-12-08T00:05:34.628Z,6.23
2022-12-08T00:08:20.267Z,4.30
2022-12-08T00:10:49.373Z,6.10
2022-12-08T00:13:18.681Z,5.83
2022-12-08T00:15:46.103Z,10.40
2022-12-08T00:18:13.857Z,4.53
2022-12-08T00:20:41.300Z,3.97
2022-12-08T00:23:08.746Z,8.03
2022-12-08T00:25:36.868Z,6.47
2022-12-08T00:28:04.411Z,6.13
2022-12-08T00:30:33.187Z,5.20
2022-12-08T00:33:00.654Z,6.90
2022-12-08T00:35:28.095Z,6.13
2022-12-08T00:38:00.573Z,6.67
2022-12-08T00:40:28.899Z,7.13
2022-12-08T00:42:56.775Z,5.47
2022-12-08T00:45:24.242Z,6.43
2022-12-08T00:47:53.111Z,7.73
2022-12-08T00:50:20.568Z,6.93
2022-12-08T00:52:48.027Z,7.90
2022-12-08T00:55:15.535Z,5.47
2022-12-08T00:57:42.988Z,7.47
2022-12-08T01:00:10.884Z,7.27
2022-12-08T01:02:38.355Z,7.53
2022-12-08T01:05:07.847Z,4.53
2022-12-08T01:07:35.450Z,7.73
2022-12-08T01:10:03.946Z,6.83
2022-12-08T01:12:31.570Z,7.40
2022-12-08T01:15:02.299Z,5.77
2022-12-08T01:17:30.772Z,6.00
2022-12-08T01:19:58.707Z,6.50
2022-12-08T01:22:27.634Z,7.43
2022-12-08T01:24:55.065Z,6.27
2022-12-08T01:27:22.694Z,8.10
2022-12-08T01:29:50.150Z,6.47
2022-12-08T01:32:17.619Z,6.20
2022-12-08T01:34:45.135Z,6.27
2022-12-08T01:37:13.327Z,7.47
2022-12-08T01:39:42.206Z,8.63
2022-12-08T01:42:15.439Z,7.57
2022-12-08T01:45:04.058Z,8.20
2022-12-08T01:47:36.020Z,8.43
2022-12-08T01:50:04.396Z,5.90
2022-12-08T01:52:33.938Z,6.90
2022-12-08T01:55:03.848Z,7.50
2022-12-08T01:57:34.203Z,8.67
2022-12-08T02:00:03.082Z,7.13
2022-12-08T02:02:37.004Z,6.93
2022-12-08T02:05:04.734Z,7.50
2022-12-08T02:07:32.614Z,7.77
2022-12-08T02:10:00.352Z,7.60
2022-12-08T02:12:29.180Z,6.53
2022-12-08T02:15:00.549Z,7.93
2022-12-08T02:17:37.870Z,6.13
2022-12-08T02:20:35.559Z,7.53
2022-12-08T02:23:08.265Z,6.90
2022-12-08T02:25:40.666Z,7.33
2022-12-08T02:28:22.928Z,5.67
2022-12-08T02:30:54.971Z,7.20
2022-12-08T02:33:40.429Z,7.17
2022-12-08T02:36:14.120Z,7.87
2022-12-08T02:38:46.819Z,6.73
2022-12-08T02:41:20.127Z,8.67
2022-12-08T02:43:48.944Z,5.77
2022-12-08T02:46:19.540Z,8.33
2022-12-08T02:48:47.681Z,7.97
2022-12-08T02:51:16.474Z,7.60
2022-12-08T02:53:44.365Z,8.83
2022-12-08T02:56:15.940Z,6.97
2022-12-08T02:58:47.762Z,7.10
2022-12-08T03:01:29.550Z,9.00
2022-12-08T03:04:00.917Z,8.23
2022-12-08T03:06:33.466Z,8.80
2022-12-08T03:09:04.008Z,6.97
2022-12-08T03:11:35.138Z,9.27
2022-12-08T03:14:04.509Z,5.40
2022-12-08T03:16:34.017Z,6.80
2022-12-08T03:19:03.483Z,6.13
2022-12-08T03:21:33.447Z,6.27
2022-12-08T03:24:03.080Z,5.73
2022-12-08T03:26:31.925Z,7.03
2022-12-08T03:28:59.705Z,8.97
2022-12-08T03:31:28.921Z,7.10
2022-12-08T03:33:57.529Z,8.73
2022-12-08T03:36:25.441Z,5.97
2022-12-08T03:38:54.695Z,8.27
2022-12-08T03:41:22.794Z,8.20
2022-12-08T03:43:51.098Z,5.93
2022-12-08T03:48:47.098Z,6.77
2022-12-08T03:51:14.855Z,6.57
2022-12-08T03:53:42.332Z,5.77
2022-12-08T03:56:16.094Z,7.07
2022-12-08T03:58:43.980Z,7.33
2022-12-08T04:01:11.626Z,6.00
2022-12-08T04:03:39.108Z,6.23
2022-12-08T04:06:06.765Z,6.43
2022-12-08T04:08:34.480Z,6.30
2022-12-08T04:11:01.928Z,7.97
2022-12-08T04:13:30.882Z,6.93
2022-12-08T04:15:58.415Z,8.20
2022-12-08T04:18:25.871Z,7.63
2022-12-08T04:20:53.684Z,6.73
2022-12-08T04:23:21.143Z,7.33
2022-12-08T04:25:48.603Z,7.13
2022-12-08T04:28:16.470Z,6.67
2022-12-08T04:30:45.415Z,7.77
2022-12-08T04:33:12.864Z,10.43
2022-12-08T04:35:40.285Z,8.20
2022-12-08T04:38:07.727Z,11.53
2022-12-08T04:40:35.188Z,11.57
2022-12-08T04:43:02.658Z,8.70
2022-12-08T04:45:30.099Z,9.13
2022-12-08T04:47:58.920Z,11.20
2022-12-08T04:50:26.449Z,9.83
2022-12-08T04:52:53.883Z,13.90
2022-12-08T04:55:21.310Z,7.90
2022-12-08T04:57:49.079Z,5.87
2022-12-08T05:00:17.140Z,6.63
2022-12-08T05:02:44.635Z,6.13
2022-12-08T05:05:13.598Z,6.33
2022-12-08T05:07:41.086Z,7.83
2022-12-08T05:10:09.203Z,6.97
2022-12-08T05:12:36.643Z,5.80
2022-12-08T05:15:04.243Z,5.97
2022-12-08T05:17:31.674Z,6.73
2022-12-08T05:19:59.144Z,6.70
2022-12-08T05:22:28.031Z,6.70
2022-12-08T05:24:55.483Z,6.70
2022-12-08T05:27:22.925Z,6.67
2022-12-08T05:29:50.392Z,8.57
2022-12-08T05:32:17.891Z,8.33
2022-12-08T05:34:45.571Z,6.00
2022-12-08T05:37:13.068Z,6.20
2022-12-08T05:39:41.848Z,6.70
2022-12-08T05:42:09.309Z,7.23
2022-12-08T05:44:36.783Z,6.83
2022-12-08T05:47:04.331Z,8.33
2022-12-08T05:49:31.910Z,5.63
2022-12-08T05:51:59.344Z,6.50
2022-12-08T05:54:26.794Z,5.57
2022-12-08T05:56:55.584Z,5.30
2022-12-08T05:59:23.049Z,4.60
2022-12-08T06:01:50.497Z,6.87
2022-12-08T06:04:18.000Z,5.87
2022-12-08T06:06:45.437Z,5.97
2022-12-08T06:09:13.291Z,6.07
2022-12-08T06:11:40.715Z,5.80
2022-12-08T06:14:12.255Z,6.77
2022-12-08T06:16:39.980Z,5.43
2022-12-08T06:19:07.613Z,5.17
2022-12-08T06:21:37.240Z,5.83
2022-12-08T06:24:04.773Z,5.20
2022-12-08T06:26:32.246Z,5.63
2022-12-08T06:29:00.685Z,5.50
2022-12-08T06:31:29.557Z,6.53
2022-12-08T06:33:57.171Z,6.37
2022-12-08T06:36:25.810Z,5.13
2022-12-08T06:38:53.521Z,6.07
2022-12-08T06:41:20.995Z,6.77
2022-12-08T06:43:48.858Z,6.70
2022-12-08T06:46:17.966Z,7.80
2022-12-08T06:48:46.828Z,6.97
2022-12-08T06:51:15.900Z,5.73
2022-12-08T06:53:44.259Z,6.80
2022-12-08T06:56:12.067Z,7.53
2022-12-08T06:58:41.057Z,7.00
2022-12-08T07:01:09.376Z,7.17
2022-12-08T07:03:37.036Z,6.37
2022-12-08T07:06:06.243Z,6.53
2022-12-08T07:08:33.852Z,7.43
2022-12-08T07:11:07.086Z,6.17
2022-12-08T07:13:34.542Z,5.60
2022-12-08T07:16:02.032Z,7.03
2022-12-08T07:18:29.508Z,6.00
2022-12-08T07:20:56.987Z,8.10
2022-12-08T07:23:28.135Z,7.67
2022-12-08T07:25:55.675Z,9.23
2022-12-08T07:28:23.296Z,7.33
2022-12-08T07:30:50.781Z,7.37
2022-12-08T07:33:18.627Z,6.63
2022-12-08T07:35:49.324Z,9.07
2022-12-08T07:38:17.362Z,9.97
2022-12-08T07:40:46.182Z,7.43
2022-12-08T07:43:13.622Z,8.00
2022-12-08T07:45:41.887Z,8.80
2022-12-08T07:48:09.995Z,7.97
2022-12-08T07:50:37.447Z,9.97
2022-12-08T07:53:04.997Z,6.70
2022-12-08T07:55:32.831Z,7.60
2022-12-08T07:58:01.669Z,8.03
2022-12-08T08:00:29.227Z,7.93
2022-12-08T08:02:56.900Z,8.47
2022-12-08T08:05:24.431Z,7.77
2022-12-08T08:07:51.930Z,8.40
2022-12-08T08:10:19.377Z,7.73
2022-12-08T08:12:47.562Z,7.40
2022-12-08T08:15:17.378Z,9.20
2022-12-08T08:17:44.816Z,7.93
2022-12-08T08:20:12.838Z,7.07
2022-12-08T08:22:40.296Z,9.77
2022-12-08T08:25:08.507Z,8.30
2022-12-08T08:27:37.165Z,7.63
2022-12-08T08:30:05.098Z,7.83
2022-12-08T08:32:34.992Z,7.87
2022-12-08T08:35:02.541Z,8.23
2022-12-08T08:37:30.082Z,7.40
2022-12-08T08:39:57.576Z,7.80
2022-12-08T08:42:25.014Z,7.70
2022-12-08T08:44:52.543Z,8.37
2022-12-08T08:47:19.985Z,6.97
2022-12-08T08:49:49.074Z,12.73
2022-12-08T08:52:16.658Z,13.37
2022-12-08T08:54:44.127Z,17.80
2022-12-08T08:57:11.662Z,19.30
2022-12-08T08:59:39.113Z,19.70
2022-12-08T09:02:06.581Z,19.13
2022-12-08T09:04:34.180Z,13.60
2022-12-08T09:07:03.078Z,15.87
2022-12-08T09:09:31.161Z,23.13
2022-12-08T09:11:58.620Z,16.70
2022-12-08T09:14:26.087Z,13.63
2022-12-08T09:16:53.572Z,10.33
2022-12-08T09:19:21.035Z,15.47
2022-12-08T09:21:48.505Z,16.90
2022-12-08T09:24:21.815Z,14.87
2022-12-08T09:26:49.426Z,16.40
2022-12-08T09:29:17.588Z,12.40
2022-12-08T09:31:45.133Z,11.43
2022-12-08T09:34:13.332Z,11.67
2022-12-08T09:36:41.061Z,11.33
2022-12-08T09:39:08.659Z,9.83
2022-12-08T09:41:44.792Z,10.40
2022-12-08T09:44:33.691Z,8.00
2022-12-08T09:47:02.280Z,8.00
2022-12-08T09:49:34.989Z,9.10
2022-12-08T09:52:03.259Z,8.57
2022-12-08T09:54:32.938Z,8.93
2022-12-08T09:57:04.285Z,9.17
2022-12-08T09:59:32.781Z,7.40
2022-12-08T10:02:00.999Z,6.73
2022-12-08T10:04:32.274Z,6.40
2022-12-08T10:07:04.992Z,8.20
2022-12-08T10:09:36.913Z,6.50
2022-12-08T10:12:08.985Z,9.30
2022-12-08T10:14:40.732Z,8.90
2022-12-08T10:17:12.514Z,7.80
2022-12-08T10:19:41.390Z,6.73
2022-12-08T10:22:13.314Z,7.67
2022-12-08T10:24:42.944Z,7.03
2022-12-08T10:27:13.112Z,7.37
2022-12-08T10:29:41.021Z,7.13
2022-12-08T10:32:14.777Z,7.70
2022-12-08T10:34:57.122Z,6.63
2022-12-08T10:37:24.568Z,5.73
2022-12-08T10:39:59.556Z,5.53
2022-12-08T10:42:33.673Z,7.30
2022-12-08T10:45:03.245Z,6.40
2022-12-08T10:47:31.531Z,6.83
2022-12-08T10:50:07.922Z,5.43
2022-12-08T10:52:38.964Z,5.33
2022-12-08T10:55:14.058Z,5.33
2022-12-08T10:57:42.843Z,6.40
2022-12-08T11:00:14.586Z,5.73
2022-12-08T11:02:53.840Z,8.03
2022-12-08T11:05:23.380Z,5.13
2022-12-08T11:07:52.552Z,5.60
2022-12-08T11:10:20.707Z,6.57
2022-12-08T11:12:50.421Z,6.73
2022-12-08T11:15:18.683Z,5.43
2022-12-08T11:17:59.040Z,6.33
2022-12-08T11:20:26.504Z,5.90
2022-12-08T11:22:57.538Z,4.67
2022-12-08T11:25:25.754Z,5.93
2022-12-08T11:27:57.303Z,6.77
2022-12-08T11:30:26.409Z,6.97
2022-12-08T11:32:55.868Z,4.67
2022-12-08T11:35:26.557Z,5.30
2022-12-08T11:38:07.883Z,6.17
2022-12-08T11:40:43.831Z,4.57
2022-12-08T11:43:17.507Z,6.47
2022-12-08T11:45:45.286Z,4.97
2022-12-08T11:48:15.388Z,5.83
2022-12-08T11:50:44.889Z,5.03
2022-12-08T11:53:19.234Z,5.07
2022-12-08T11:55:51.383Z,5.60
2022-12-08T11:58:22.363Z,4.83
2022-12-08T12:00:50.124Z,5.23
2022-12-08T12:03:21.636Z,4.87
2022-12-08T12:06:37.645Z,7.17
2022-12-08T12:08:53.569Z,4.43
2022-12-08T12:11:38.272Z,3.30
2022-12-08T12:14:14.086Z,4.17
2022-12-08T12:16:56.013Z,3.13
2022-12-08T12:19:24.038Z,4.50
2022-12-08T12:21:52.919Z,4.60
2022-12-08T12:24:26.065Z,4.73
2022-12-08T12:26:58.424Z,3.43
2022-12-08T12:29:28.985Z,7.20
2022-12-08T12:31:58.337Z,3.50
2022-12-08T12:34:27.089Z,5.93
2022-12-08T12:36:55.799Z,5.27
2022-12-08T12:39:25.705Z,4.47
2022-12-08T12:41:54.793Z,4.57
2022-12-08T12:44:25.064Z,5.13
2022-12-08T12:46:58.300Z,4.57
2022-12-08T12:49:45.889Z,6.93
2022-12-08T12:52:31.724Z,5.60
2022-12-08T12:55:18.150Z,5.20
2022-12-08T12:57:51.339Z,6.63
2022-12-08T13:00:19.786Z,6.80
2022-12-08T13:02:49.752Z,4.97
2022-12-08T13:05:18.267Z,4.67
2022-12-08T13:07:47.327Z,7.13
2022-12-08T13:10:18.682Z,6.60
2022-12-08T13:12:47.025Z,4.80
2022-12-08T13:15:19.602Z,4.03
2022-12-08T13:17:49.511Z,4.83
2022-12-08T13:20:20.232Z,4.00
2022-12-08T13:23:01.440Z,4.80
2022-12-08T13:25:59.220Z,4.70
2022-12-08T13:28:28.501Z,4.07
2022-12-08T13:30:56.813Z,6.33
2022-12-08T13:33:27.773Z,4.83
2022-12-08T13:36:01.609Z,5.37
2022-12-08T13:38:30.913Z,5.10
2022-12-08T13:40:58.462Z,6.80
2022-12-08T13:43:41.330Z,7.43
2022-12-08T13:55:35.483Z,5.73
2022-12-08T13:57:32.527Z,4.43
2022-12-08T14:00:00.910Z,4.67
2022-12-08T14:02:31.271Z,4.37
2022-12-08T14:07:49.198Z,6.13
2022-12-08T14:10:18.433Z,9.53
2022-12-08T14:12:47.668Z,11.33
2022-12-08T14:15:16.712Z,12.47
2022-12-08T14:17:51.481Z,11.97
2022-12-08T14:20:23.387Z,32.70
2022-12-08T14:22:52.268Z,23.77
2022-12-08T14:25:20.190Z,10.43
2022-12-08T14:27:47.891Z,7.07
2022-12-08T14:30:19.453Z,8.83
2022-12-08T14:32:48.840Z,9.33
2022-12-08T14:35:23.138Z,9.10
2022-12-08T14:37:54.660Z,6.60
2022-12-08T14:40:24.142Z,7.47
2022-12-08T14:42:52.811Z,6.57
2022-12-08T14:45:20.311Z,6.23
2022-12-08T14:47:48.527Z,5.40
2022-12-08T14:50:40.556Z,6.33
2022-12-08T14:53:12.733Z,7.47
2022-12-08T14:55:40.370Z,4.30
2022-12-08T14:58:10.694Z,5.93
2022-12-08T15:00:45.311Z,9.23
2022-12-08T15:03:13.786Z,5.10
2022-12-08T15:05:43.192Z,5.67
2022-12-08T15:08:12.857Z,5.53
2022-12-08T15:10:40.481Z,5.27
2022-12-08T15:13:20.682Z,5.30
2022-12-08T15:15:49.566Z,12.30
2022-12-08T15:18:19.117Z,6.80
2022-12-08T15:20:49.742Z,6.70
2022-12-08T15:23:25.913Z,5.87
2022-12-08T15:25:54.006Z,8.13
2022-12-08T15:28:26.701Z,7.00
2022-12-08T15:30:57.549Z,4.67
2022-12-08T15:33:25.045Z,4.67
2022-12-08T15:35:53.934Z,5.53
2022-12-08T15:38:23.206Z,5.87
2022-12-08T15:40:50.797Z,6.10
2022-12-08T15:43:18.490Z,8.40
2022-12-08T15:45:58.035Z,15.13
2022-12-08T15:48:27.866Z,12.93
2022-12-08T15:50:57.020Z,9.00
2022-12-08T15:53:24.468Z,9.17
2022-12-08T15:58:56.533Z,5.60
2022-12-08T16:01:25.583Z,6.50
2022-12-08T16:09:32.049Z,4.77
2022-12-08T16:12:17.619Z,7.27
2022-12-08T16:17:33.119Z,6.77
2022-12-08T16:20:00.967Z,6.97
2022-12-08T16:25:20.619Z,6.07
2022-12-08T16:30:37.556Z,6.83
2022-12-08T16:33:05.411Z,5.67
2022-12-08T16:35:32.865Z,5.27
2022-12-08T16:38:01.734Z,4.67
2022-12-08T16:40:29.214Z,4.17
2022-12-08T16:42:55.687Z,5.37
2022-12-08T16:45:24.068Z,3.97
2022-12-08T16:47:52.481Z,6.57
2022-12-08T16:50:20.976Z,4.77
2022-12-08T16:52:48.792Z,4.77
2022-12-08T16:55:18.691Z,5.03
2022-12-08T16:57:46.935Z,6.07
2022-12-08T17:00:16.019Z,5.57
2022-12-08T17:02:43.596Z,5.53
2022-12-08T17:05:13.614Z,6.30
2022-12-08T17:07:41.326Z,5.60
2022-12-08T17:10:10.132Z,5.30
2022-12-08T17:12:39.016Z,10.13
2022-12-08T17:15:08.677Z,10.67
2022-12-08T17:17:36.243Z,12.13
2022-12-08T17:20:05.496Z,18.10
2022-12-08T17:22:33.741Z,12.43
2022-12-08T17:25:01.557Z,6.23
2022-12-08T17:27:29.036Z,8.53
2022-12-08T17:29:57.938Z,6.60
2022-12-08T17:32:25.424Z,9.27
2022-12-08T17:34:52.948Z,7.07
2022-12-08T17:37:20.705Z,9.30
2022-12-08T17:39:48.186Z,8.60
2022-12-08T17:42:15.701Z,6.60
2022-12-08T17:44:43.160Z,7.00
2022-12-08T17:47:11.922Z,7.00
2022-12-08T17:49:39.408Z,5.50
2022-12-08T17:52:07.686Z,7.27
2022-12-08T17:54:36.378Z,5.50
2022-12-08T17:57:03.844Z,6.43
2022-12-08T17:59:31.524Z,5.33
2022-12-08T18:01:59.572Z,7.20
2022-12-08T18:04:28.774Z,6.03
2022-12-08T18:06:58.206Z,7.20
2022-12-08T18:09:25.721Z,5.53
2022-12-08T18:11:53.182Z,7.90
2022-12-08T18:14:20.649Z,8.33
2022-12-08T18:16:48.230Z,8.77
2022-12-08T18:19:15.990Z,8.80
2022-12-08T18:21:44.850Z,7.47
2022-12-08T18:24:17.496Z,7.90
2022-12-08T18:26:44.956Z,12.87
2022-12-08T18:29:12.420Z,6.70
2022-12-08T18:31:39.872Z,8.20
2022-12-08T18:34:07.611Z,6.73
2022-12-08T18:36:35.064Z,6.03
2022-12-08T18:39:10.240Z,6.20
2022-12-08T18:41:38.315Z,6.63
2022-12-08T18:44:05.769Z,5.37
2022-12-08T18:46:33.263Z,4.87
2022-12-08T18:49:00.848Z,5.07
2022-12-08T18:51:28.582Z,5.63
2022-12-08T18:53:56.068Z,5.83
2022-12-08T18:56:26.195Z,7.63
2022-12-08T18:58:59.832Z,6.67
2022-12-08T19:01:30.380Z,6.57
2022-12-08T19:04:26.659Z,7.83
2022-12-08T19:06:46.178Z,5.43
2022-12-08T19:09:15.711Z,6.17
2022-12-08T19:11:44.769Z,4.63
2022-12-08T19:14:12.359Z,5.60
2022-12-08T19:16:39.861Z,6.63
2022-12-08T19:19:07.491Z,5.70
2022-12-08T19:21:35.018Z,5.67
2022-12-08T19:24:02.451Z,5.73
2022-12-08T19:26:29.908Z,6.23
2022-12-08T19:28:58.770Z,6.07
2022-12-08T19:31:26.235Z,5.40
2022-12-08T19:33:53.757Z,10.37
2022-12-08T19:36:22.160Z,8.80
2022-12-08T19:39:07.325Z,5.43
2022-12-08T19:41:53.885Z,5.37
2022-12-08T19:44:42.416Z,5.97
2022-12-08T19:47:10.247Z,7.33
2022-12-08T19:49:37.807Z,7.13
2022-12-08T19:52:05.681Z,5.67
2022-12-08T19:54:33.185Z,6.07
2022-12-08T19:57:00.729Z,6.73
2022-12-08T19:59:30.234Z,6.23
2022-12-08T20:01:58.412Z,7.97
2022-12-08T20:04:26.855Z,9.03
2022-12-08T20:06:55.066Z,5.40
2022-12-08T20:09:22.908Z,7.17
2022-12-08T20:11:50.841Z,6.17
2022-12-08T20:14:18.700Z,6.47
2022-12-08T20:16:47.576Z,5.13
2022-12-08T20:19:15.145Z,5.20
2022-12-08T20:21:42.614Z,3.90
2022-12-08T20:24:10.111Z,5.20
2022-12-08T20:26:37.649Z,7.33
2022-12-08T20:29:05.097Z,5.77
2022-12-08T20:31:33.415Z,5.40
2022-12-08T20:34:02.571Z,6.93
2022-12-08T20:36:30.090Z,6.87
2022-12-08T20:38:57.787Z,6.00
2022-12-08T20:41:25.352Z,5.93
2022-12-08T20:43:53.056Z,5.70
2022-12-08T20:46:21.327Z,6.97
2022-12-08T20:48:48.970Z,6.23
2022-12-08T20:51:19.424Z,4.67
2022-12-08T20:53:48.177Z,6.10
2022-12-08T20:56:16.396Z,6.73
2022-12-08T20:58:44.314Z,6.37
2022-12-08T21:01:12.428Z,6.80
2022-12-08T21:03:40.861Z,5.93
2022-12-08T21:06:08.595Z,7.40
2022-12-08T21:08:37.966Z,6.30
2022-12-08T21:11:06.199Z,5.23
2022-12-08T21:13:33.905Z,7.83
2022-12-08T21:16:01.455Z,9.30
2022-12-08T21:18:31.228Z,6.83
2022-12-08T21:21:04.157Z,11.50
2022-12-08T21:23:31.935Z,5.47
2022-12-08T21:26:00.929Z,8.17
2022-12-08T21:28:28.569Z,6.93
2022-12-08T21:30:56.190Z,7.33
2022-12-08T21:33:23.949Z,10.53
2022-12-08T21:35:52.395Z,8.40
2022-12-08T21:38:20.037Z,7.00
2022-12-08T21:40:47.615Z,6.97
2022-12-08T21:43:16.534Z,7.40
2022-12-08T21:45:44.003Z,8.57
2022-12-08T21:48:12.190Z,7.77
2022-12-08T21:50:40.036Z,5.77
2022-12-08T21:53:07.713Z,6.93
2022-12-08T21:55:35.338Z,7.60
2022-12-08T21:58:02.956Z,6.73
2022-12-08T22:00:32.207Z,6.10
2022-12-08T22:02:59.840Z,5.73
2022-12-08T22:05:27.628Z,7.33
2022-12-08T22:07:55.201Z,6.03
2022-12-08T22:10:23.426Z,6.13
2022-12-08T22:12:51.068Z,5.83
2022-12-08T22:15:18.896Z,6.17
2022-12-08T22:17:47.780Z,7.27
2022-12-08T22:20:16.454Z,8.30
2022-12-08T22:22:45.955Z,6.67
2022-12-08T22:25:13.757Z,6.97
2022-12-08T22:27:41.567Z,6.20
2022-12-08T22:30:10.637Z,7.53
2022-12-08T22:32:39.253Z,6.43
2022-12-08T22:35:08.836Z,6.90
2022-12-08T22:37:36.421Z,7.23
2022-12-08T22:40:04.558Z,7.37
2022-12-08T22:42:32.294Z,6.20
2022-12-08T22:44:59.974Z,5.33
2022-12-08T22:47:27.607Z,5.70
2022-12-08T22:49:55.200Z,6.70
2022-12-08T22:52:24.186Z,5.40
2022-12-08T22:54:51.764Z,6.50
2022-12-08T22:57:19.285Z,6.37
2022-12-08T22:59:46.784Z,6.43
2022-12-08T23:02:14.308Z,6.00
2022-12-08T23:04:42.004Z,6.70
2022-12-08T23:07:10.131Z,6.17
2022-12-08T23:09:39.272Z,6.60
2022-12-08T23:12:07.264Z,7.10
2022-12-08T23:14:34.782Z,5.90
2022-12-08T23:17:02.485Z,5.33
2022-12-08T23:19:30.015Z,6.90
2022-12-08T23:21:57.595Z,7.27
2022-12-08T23:24:25.455Z,6.37
2022-12-08T23:26:54.474Z,7.10
2022-12-08T23:29:22.093Z,5.50
2022-12-08T23:31:49.625Z,6.37
2022-12-08T23:34:17.430Z,6.07
2022-12-08T23:36:44.941Z,8.43
2022-12-08T23:39:12.684Z,6.07
2022-12-08T23:41:40.458Z,6.43
2022-12-08T23:44:11.902Z,6.93
2022-12-08T23:46:39.416Z,7.30
2022-12-08T23:49:07.224Z,6.00
2022-12-08T23:51:34.671Z,6.87
2022-12-08T23:54:02.190Z,7.90
2022-12-08T23:56:30.668Z,7.23
2022-12-08T23:58:58.511Z,6.50
